sensor_id;sensor_type;location;lat;lon;timestamp;P1;durP1;ratioP1;P2;durP2;ratioP2
67841;SDS011;54642;59.126;37.876;2023-04-04T00:02:00;10.73;;;5.43;;
67841;SDS011;54642;59.126;37.876;2023-04-04T00:04:26;13.95;;;4.32;;
67841;SDS011;54642;59.126;37.876;2023-04-04T00:06:53;11.00;;;5.35;;
67841;SDS011;54642;59.126;37.876;2023-04-04T00:09:19;12.20;;;5.53;;
67841;SDS011;54642;59.126;37.876;2023-04-04T00:11:45;10.50;;;5.78;;
67841;SDS011;54642;59.126;37.876;2023-04-04T00:14:11;11.18;;;5.15;;
67841;SDS011;54642;59.126;37.876;2023-04-04T00:16:38;13.38;;;5.68;;
67841;SDS011;54642;59.126;37.876;2023-04-04T00:19:04;16.80;;;5.65;;
67841;SDS011;54642;59.126;37.876;2023-04-04T00:21:30;10.27;;;4.90;;
67841;SDS011;54642;59.126;37.876;2023-04-04T00:23:56;9.93;;;5.47;;
67841;SDS011;54642;59.126;37.876;2023-04-04T00:26:23;8.32;;;5.65;;
67841;SDS011;54642;59.126;37.876;2023-04-04T00:28:49;10.77;;;5.75;;
67841;SDS011;54642;59.126;37.876;2023-04-04T00:31:15;11.45;;;5.90;;
67841;SDS011;54642;59.126;37.876;2023-04-04T00:33:42;10.60;;;5.78;;
67841;SDS011;54642;59.126;37.876;2023-04-04T00:36:08;10.15;;;4.93;;
67841;SDS011;54642;59.126;37.876;2023-04-04T00:38:34;10.73;;;5.32;;
67841;SDS011;54642;59.126;37.876;2023-04-04T00:40:59;10.65;;;5.60;;
67841;SDS011;54642;59.126;37.876;2023-04-04T00:43:26;8.40;;;4.82;;
67841;SDS011;54642;59.126;37.876;2023-04-04T00:45:52;10.63;;;5.55;;
67841;SDS011;54642;59.126;37.876;2023-04-04T00:48:19;9.82;;;4.70;;
67841;SDS011;54642;59.126;37.876;2023-04-04T00:50:45;9.80;;;4.95;;
67841;SDS011;54642;59.126;37.876;2023-04-04T00:53:11;9.35;;;5.30;;
67841;SDS011;54642;59.126;37.876;2023-04-04T00:55:37;11.35;;;6.00;;
67841;SDS011;54642;59.126;37.876;2023-04-04T00:58:04;11.82;;;5.57;;
67841;SDS011;54642;59.126;37.876;2023-04-04T01:00:34;9.38;;;5.68;;
67841;SDS011;54642;59.126;37.876;2023-04-04T01:03:01;9.50;;;5.30;;
67841;SDS011;54642;59.126;37.876;2023-04-04T01:05:30;10.95;;;5.60;;
67841;SDS011;54642;59.126;37.876;2023-04-04T01:07:56;13.73;;;5.30;;
67841;SDS011;54642;59.126;37.876;2023-04-04T01:10:22;9.43;;;5.32;;
67841;SDS011;54642;59.126;37.876;2023-04-04T01:12:48;9.80;;;4.32;;
67841;SDS011;54642;59.126;37.876;2023-04-04T01:15:16;10.65;;;4.65;;
67841;SDS011;54642;59.126;37.876;2023-04-04T01:17:43;8.93;;;5.30;;
67841;SDS011;54642;59.126;37.876;2023-04-04T01:20:10;9.65;;;4.38;;
67841;SDS011;54642;59.126;37.876;2023-04-04T01:22:43;9.82;;;4.43;;
67841;SDS011;54642;59.126;37.876;2023-04-04T01:25:13;7.05;;;4.07;;
67841;SDS011;54642;59.126;37.876;2023-04-04T01:27:42;5.95;;;3.88;;
67841;SDS011;54642;59.126;37.876;2023-04-04T01:30:13;6.07;;;3.45;;
67841;SDS011;54642;59.126;37.876;2023-04-04T01:32:58;5.43;;;3.80;;
67841;SDS011;54642;59.126;37.876;2023-04-04T01:35:46;5.38;;;2.95;;
67841;SDS011;54642;59.126;37.876;2023-04-04T01:41:01;6.97;;;3.42;;
67841;SDS011;54642;59.126;37.876;2023-04-04T01:43:31;6.78;;;3.47;;
67841;SDS011;54642;59.126;37.876;2023-04-04T01:45:59;4.88;;;3.22;;
67841;SDS011;54642;59.126;37.876;2023-04-04T01:48:26;6.20;;;3.13;;
67841;SDS011;54642;59.126;37.876;2023-04-04T01:50:54;4.30;;;2.53;;
67841;SDS011;54642;59.126;37.876;2023-04-04T01:53:23;5.25;;;2.88;;
67841;SDS011;54642;59.126;37.876;2023-04-04T01:55:49;5.10;;;3.28;;
67841;SDS011;54642;59.126;37.876;2023-04-04T01:58:15;4.90;;;2.70;;
67841;SDS011;54642;59.126;37.876;2023-04-04T02:00:42;4.45;;;2.28;;
67841;SDS011;54642;59.126;37.876;2023-04-04T02:03:08;4.60;;;2.72;;
67841;SDS011;54642;59.126;37.876;2023-04-04T02:05:34;5.70;;;2.60;;
67841;SDS011;54642;59.126;37.876;2023-04-04T02:08:00;4.95;;;2.70;;
67841;SDS011;54642;59.126;37.876;2023-04-04T02:10:38;6.07;;;3.40;;
67841;SDS011;54642;59.126;37.876;2023-04-04T02:13:04;3.92;;;2.65;;
67841;SDS011;54642;59.126;37.876;2023-04-04T02:15:32;6.78;;;4.00;;
67841;SDS011;54642;59.126;37.876;2023-04-04T02:17:58;5.60;;;3.40;;
67841;SDS011;54642;59.126;37.876;2023-04-04T02:20:24;4.95;;;2.92;;
67841;SDS011;54642;59.126;37.876;2023-04-04T02:22:51;5.50;;;3.35;;
67841;SDS011;54642;59.126;37.876;2023-04-04T02:25:18;6.13;;;3.35;;
67841;SDS011;54642;59.126;37.876;2023-04-04T02:27:45;6.13;;;3.45;;
67841;SDS011;54642;59.126;37.876;2023-04-04T02:30:11;5.50;;;3.92;;
67841;SDS011;54642;59.126;37.876;2023-04-04T02:32:38;5.60;;;3.60;;
67841;SDS011;54642;59.126;37.876;2023-04-04T02:35:06;6.70;;;4.28;;
67841;SDS011;54642;59.126;37.876;2023-04-04T02:37:35;8.27;;;4.30;;
67841;SDS011;54642;59.126;37.876;2023-04-04T02:40:04;8.43;;;5.28;;
67841;SDS011;54642;59.126;37.876;2023-04-04T02:42:35;7.78;;;4.70;;
67841;SDS011;54642;59.126;37.876;2023-04-04T02:45:01;12.75;;;5.68;;
67841;SDS011;54642;59.126;37.876;2023-04-04T02:47:27;10.88;;;7.43;;
67841;SDS011;54642;59.126;37.876;2023-04-04T02:49:54;12.48;;;7.03;;
67841;SDS011;54642;59.126;37.876;2023-04-04T02:52:23;19.67;;;7.78;;
67841;SDS011;54642;59.126;37.876;2023-04-04T02:54:49;12.40;;;5.38;;
67841;SDS011;54642;59.126;37.876;2023-04-04T02:57:27;21.33;;;7.50;;
67841;SDS011;54642;59.126;37.876;2023-04-04T02:59:52;19.65;;;9.50;;
67841;SDS011;54642;59.126;37.876;2023-04-04T03:02:18;13.25;;;8.13;;
67841;SDS011;54642;59.126;37.876;2023-04-04T03:04:44;26.77;;;10.13;;
67841;SDS011;54642;59.126;37.876;2023-04-04T03:07:10;24.77;;;11.85;;
67841;SDS011;54642;59.126;37.876;2023-04-04T03:09:37;34.22;;;12.25;;
67841;SDS011;54642;59.126;37.876;2023-04-04T03:12:03;26.38;;;10.68;;
67841;SDS011;54642;59.126;37.876;2023-04-04T03:14:30;14.55;;;8.70;;
67841;SDS011;54642;59.126;37.876;2023-04-04T03:16:56;17.77;;;9.02;;
67841;SDS011;54642;59.126;37.876;2023-04-04T03:19:23;20.10;;;8.38;;
67841;SDS011;54642;59.126;37.876;2023-04-04T03:21:50;24.92;;;9.40;;
67841;SDS011;54642;59.126;37.876;2023-04-04T03:24:16;19.85;;;11.00;;
67841;SDS011;54642;59.126;37.876;2023-04-04T03:26:43;23.75;;;12.98;;
67841;SDS011;54642;59.126;37.876;2023-04-04T03:29:11;19.35;;;10.50;;
67841;SDS011;54642;59.126;37.876;2023-04-04T03:31:37;17.00;;;9.02;;
67841;SDS011;54642;59.126;37.876;2023-04-04T03:34:03;18.88;;;10.00;;
67841;SDS011;54642;59.126;37.876;2023-04-04T03:36:29;13.60;;;7.45;;
67841;SDS011;54642;59.126;37.876;2023-04-04T03:38:55;11.80;;;5.80;;
67841;SDS011;54642;59.126;37.876;2023-04-04T03:41:21;9.88;;;5.30;;
67841;SDS011;54642;59.126;37.876;2023-04-04T03:43:48;9.98;;;5.72;;
67841;SDS011;54642;59.126;37.876;2023-04-04T03:46:14;13.02;;;7.50;;
67841;SDS011;54642;59.126;37.876;2023-04-04T03:48:42;14.52;;;7.90;;
67841;SDS011;54642;59.126;37.876;2023-04-04T03:51:09;20.15;;;9.48;;
67841;SDS011;54642;59.126;37.876;2023-04-04T03:53:36;15.43;;;9.32;;
67841;SDS011;54642;59.126;37.876;2023-04-04T03:56:02;16.88;;;9.77;;
67841;SDS011;54642;59.126;37.876;2023-04-04T03:58:29;16.30;;;8.95;;
67841;SDS011;54642;59.126;37.876;2023-04-04T04:00:55;12.18;;;7.63;;
67841;SDS011;54642;59.126;37.876;2023-04-04T04:03:22;16.23;;;10.07;;
67841;SDS011;54642;59.126;37.876;2023-04-04T04:05:48;14.38;;;8.00;;
67841;SDS011;54642;59.126;37.876;2023-04-04T04:08:15;15.02;;;6.65;;
67841;SDS011;54642;59.126;37.876;2023-04-04T04:10:41;12.20;;;6.70;;
67841;SDS011;54642;59.126;37.876;2023-04-04T04:13:06;11.98;;;6.60;;
67841;SDS011;54642;59.126;37.876;2023-04-04T04:15:33;10.35;;;5.95;;
67841;SDS011;54642;59.126;37.876;2023-04-04T04:18:01;7.28;;;4.65;;
67841;SDS011;54642;59.126;37.876;2023-04-04T04:20:27;7.78;;;4.25;;
67841;SDS011;54642;59.126;37.876;2023-04-04T04:22:53;8.27;;;4.10;;
67841;SDS011;54642;59.126;37.876;2023-04-04T04:25:19;6.68;;;4.45;;
67841;SDS011;54642;59.126;37.876;2023-04-04T04:27:55;6.80;;;4.10;;
67841;SDS011;54642;59.126;37.876;2023-04-04T04:30:22;8.70;;;5.43;;
67841;SDS011;54642;59.126;37.876;2023-04-04T04:32:49;11.20;;;5.80;;
67841;SDS011;54642;59.126;37.876;2023-04-04T04:35:17;10.60;;;5.63;;
67841;SDS011;54642;59.126;37.876;2023-04-04T04:37:43;7.85;;;5.05;;
67841;SDS011;54642;59.126;37.876;2023-04-04T04:40:10;7.07;;;4.10;;
67841;SDS011;54642;59.126;37.876;2023-04-04T04:42:44;5.45;;;3.40;;
67841;SDS011;54642;59.126;37.876;2023-04-04T04:45:11;6.30;;;3.70;;
67841;SDS011;54642;59.126;37.876;2023-04-04T04:47:42;7.22;;;4.22;;
67841;SDS011;54642;59.126;37.876;2023-04-04T04:50:13;6.53;;;3.72;;
67841;SDS011;54642;59.126;37.876;2023-04-04T04:52:43;7.43;;;4.90;;
67841;SDS011;54642;59.126;37.876;2023-04-04T04:55:09;6.30;;;3.80;;
67841;SDS011;54642;59.126;37.876;2023-04-04T04:57:41;5.80;;;3.35;;
67841;SDS011;54642;59.126;37.876;2023-04-04T05:00:14;5.88;;;3.97;;
67841;SDS011;54642;59.126;37.876;2023-04-04T05:02:44;8.20;;;4.43;;
67841;SDS011;54642;59.126;37.876;2023-04-04T05:05:12;8.32;;;4.05;;
67841;SDS011;54642;59.126;37.876;2023-04-04T05:07:43;7.53;;;3.95;;
67841;SDS011;54642;59.126;37.876;2023-04-04T05:10:11;6.05;;;3.53;;
67841;SDS011;54642;59.126;37.876;2023-04-04T05:12:43;6.93;;;4.07;;
67841;SDS011;54642;59.126;37.876;2023-04-04T05:15:13;6.43;;;4.43;;
67841;SDS011;54642;59.126;37.876;2023-04-04T05:17:41;6.75;;;4.38;;
67841;SDS011;54642;59.126;37.876;2023-04-04T05:20:08;6.78;;;3.72;;
67841;SDS011;54642;59.126;37.876;2023-04-04T05:22:41;5.43;;;3.55;;
67841;SDS011;54642;59.126;37.876;2023-04-04T05:25:12;7.45;;;4.47;;
67841;SDS011;54642;59.126;37.876;2023-04-04T05:27:45;6.88;;;5.30;;
67841;SDS011;54642;59.126;37.876;2023-04-04T05:30:15;6.22;;;4.07;;
67841;SDS011;54642;59.126;37.876;2023-04-04T05:32:51;7.53;;;3.58;;
67841;SDS011;54642;59.126;37.876;2023-04-04T05:35:22;6.72;;;4.28;;
67841;SDS011;54642;59.126;37.876;2023-04-04T05:37:50;8.60;;;4.38;;
67841;SDS011;54642;59.126;37.876;2023-04-04T05:40:17;6.47;;;3.30;;
67841;SDS011;54642;59.126;37.876;2023-04-04T05:42:55;6.38;;;3.70;;
67841;SDS011;54642;59.126;37.876;2023-04-04T05:45:26;5.82;;;3.50;;
67841;SDS011;54642;59.126;37.876;2023-04-04T05:47:53;7.95;;;4.50;;
67841;SDS011;54642;59.126;37.876;2023-04-04T05:50:21;6.90;;;3.30;;
67841;SDS011;54642;59.126;37.876;2023-04-04T05:52:48;5.97;;;4.00;;
67841;SDS011;54642;59.126;37.876;2023-04-04T05:55:18;5.70;;;3.72;;
67841;SDS011;54642;59.126;37.876;2023-04-04T05:57:50;7.03;;;4.40;;
67841;SDS011;54642;59.126;37.876;2023-04-04T06:00:22;6.05;;;3.80;;
67841;SDS011;54642;59.126;37.876;2023-04-04T06:02:59;6.38;;;4.07;;
67841;SDS011;54642;59.126;37.876;2023-04-04T06:05:25;10.70;;;4.90;;
67841;SDS011;54642;59.126;37.876;2023-04-04T06:07:51;7.65;;;4.45;;
67841;SDS011;54642;59.126;37.876;2023-04-04T06:10:17;8.65;;;4.78;;
67841;SDS011;54642;59.126;37.876;2023-04-04T06:12:44;7.35;;;4.22;;
67841;SDS011;54642;59.126;37.876;2023-04-04T06:15:11;8.93;;;5.00;;
67841;SDS011;54642;59.126;37.876;2023-04-04T06:17:38;11.32;;;4.32;;
67841;SDS011;54642;59.126;37.876;2023-04-04T06:20:05;13.20;;;6.80;;
67841;SDS011;54642;59.126;37.876;2023-04-04T06:22:40;10.85;;;6.38;;
67841;SDS011;54642;59.126;37.876;2023-04-04T06:25:07;20.55;;;11.15;;
67841;SDS011;54642;59.126;37.876;2023-04-04T06:27:36;16.63;;;10.27;;
67841;SDS011;54642;59.126;37.876;2023-04-04T06:30:05;13.23;;;5.57;;
67841;SDS011;54642;59.126;37.876;2023-04-04T06:32:32;8.95;;;5.15;;
67841;SDS011;54642;59.126;37.876;2023-04-04T06:34:59;7.20;;;4.38;;
67841;SDS011;54642;59.126;37.876;2023-04-04T06:37:39;9.25;;;5.35;;
67841;SDS011;54642;59.126;37.876;2023-04-04T06:40:18;4.90;;;4.07;;
67841;SDS011;54642;59.126;37.876;2023-04-04T06:42:48;7.63;;;3.50;;
67841;SDS011;54642;59.126;37.876;2023-04-04T06:45:15;7.05;;;3.67;;
67841;SDS011;54642;59.126;37.876;2023-04-04T06:47:42;7.82;;;3.97;;
67841;SDS011;54642;59.126;37.876;2023-04-04T06:50:08;10.73;;;4.43;;
67841;SDS011;54642;59.126;37.876;2023-04-04T06:52:35;7.85;;;5.95;;
67841;SDS011;54642;59.126;37.876;2023-04-04T06:55:02;9.15;;;5.53;;
67841;SDS011;54642;59.126;37.876;2023-04-04T06:57:28;8.90;;;4.97;;
67841;SDS011;54642;59.126;37.876;2023-04-04T06:59:54;11.95;;;5.90;;
67841;SDS011;54642;59.126;37.876;2023-04-04T07:02:20;9.90;;;4.53;;
67841;SDS011;54642;59.126;37.876;2023-04-04T07:04:46;9.38;;;5.28;;
67841;SDS011;54642;59.126;37.876;2023-04-04T07:07:12;6.38;;;3.97;;
67841;SDS011;54642;59.126;37.876;2023-04-04T07:09:38;9.65;;;5.50;;
67841;SDS011;54642;59.126;37.876;2023-04-04T07:12:04;11.02;;;6.07;;
67841;SDS011;54642;59.126;37.876;2023-04-04T07:14:30;8.00;;;4.38;;
67841;SDS011;54642;59.126;37.876;2023-04-04T07:16:56;7.95;;;4.13;;
67841;SDS011;54642;59.126;37.876;2023-04-04T07:19:22;5.65;;;3.70;;
67841;SDS011;54642;59.126;37.876;2023-04-04T07:21:53;8.48;;;3.92;;
67841;SDS011;54642;59.126;37.876;2023-04-04T07:24:19;7.70;;;4.15;;
67841;SDS011;54642;59.126;37.876;2023-04-04T07:26:45;7.70;;;4.13;;
67841;SDS011;54642;59.126;37.876;2023-04-04T07:29:12;5.90;;;3.40;;
67841;SDS011;54642;59.126;37.876;2023-04-04T07:31:38;4.38;;;2.70;;
67841;SDS011;54642;59.126;37.876;2023-04-04T07:34:04;5.65;;;3.40;;
67841;SDS011;54642;59.126;37.876;2023-04-04T07:36:30;7.47;;;4.82;;
67841;SDS011;54642;59.126;37.876;2023-04-04T07:38:56;6.93;;;3.53;;
67841;SDS011;54642;59.126;37.876;2023-04-04T07:41:22;5.43;;;3.45;;
67841;SDS011;54642;59.126;37.876;2023-04-04T07:43:48;5.25;;;3.50;;
67841;SDS011;54642;59.126;37.876;2023-04-04T07:46:14;5.82;;;3.20;;
67841;SDS011;54642;59.126;37.876;2023-04-04T07:48:40;5.53;;;3.30;;
67841;SDS011;54642;59.126;37.876;2023-04-04T07:51:06;4.82;;;2.80;;
67841;SDS011;54642;59.126;37.876;2023-04-04T07:53:33;5.95;;;3.50;;
67841;SDS011;54642;59.126;37.876;2023-04-04T07:55:59;6.70;;;3.25;;
67841;SDS011;54642;59.126;37.876;2023-04-04T07:58:33;5.38;;;3.22;;
67841;SDS011;54642;59.126;37.876;2023-04-04T08:01:00;5.47;;;3.75;;
67841;SDS011;54642;59.126;37.876;2023-04-04T08:03:27;6.72;;;3.40;;
67841;SDS011;54642;59.126;37.876;2023-04-04T08:05:54;6.72;;;3.60;;
67841;SDS011;54642;59.126;37.876;2023-04-04T08:08:20;8.88;;;4.40;;
67841;SDS011;54642;59.126;37.876;2023-04-04T08:10:46;7.07;;;4.05;;
67841;SDS011;54642;59.126;37.876;2023-04-04T08:13:13;5.10;;;2.80;;
67841;SDS011;54642;59.126;37.876;2023-04-04T08:15:39;6.43;;;3.35;;
67841;SDS011;54642;59.126;37.876;2023-04-04T08:18:05;5.25;;;3.10;;
67841;SDS011;54642;59.126;37.876;2023-04-04T08:20:31;4.47;;;3.08;;
67841;SDS011;54642;59.126;37.876;2023-04-04T08:22:57;4.68;;;2.67;;
67841;SDS011;54642;59.126;37.876;2023-04-04T08:25:23;5.68;;;3.20;;
67841;SDS011;54642;59.126;37.876;2023-04-04T08:27:49;5.88;;;3.22;;
67841;SDS011;54642;59.126;37.876;2023-04-04T08:30:15;5.00;;;2.90;;
67841;SDS011;54642;59.126;37.876;2023-04-04T08:32:41;5.72;;;3.38;;
67841;SDS011;54642;59.126;37.876;2023-04-04T08:35:10;6.00;;;3.38;;
67841;SDS011;54642;59.126;37.876;2023-04-04T08:37:37;6.00;;;3.20;;
67841;SDS011;54642;59.126;37.876;2023-04-04T08:40:04;4.07;;;3.03;;
67841;SDS011;54642;59.126;37.876;2023-04-04T08:42:34;6.53;;;3.40;;
67841;SDS011;54642;59.126;37.876;2023-04-04T08:45:04;5.32;;;2.80;;
67841;SDS011;54642;59.126;37.876;2023-04-04T08:47:32;5.15;;;3.10;;
67841;SDS011;54642;59.126;37.876;2023-04-04T08:50:02;4.55;;;2.92;;
67841;SDS011;54642;59.126;37.876;2023-04-04T08:52:30;4.88;;;3.28;;
67841;SDS011;54642;59.126;37.876;2023-04-04T08:54:59;5.18;;;3.03;;
67841;SDS011;54642;59.126;37.876;2023-04-04T08:57:27;4.78;;;3.13;;
67841;SDS011;54642;59.126;37.876;2023-04-04T08:59:54;5.13;;;2.67;;
67841;SDS011;54642;59.126;37.876;2023-04-04T09:02:25;4.07;;;2.60;;
67841;SDS011;54642;59.126;37.876;2023-04-04T09:04:53;3.78;;;2.55;;
67841;SDS011;54642;59.126;37.876;2023-04-04T09:07:22;4.47;;;2.55;;
67841;SDS011;54642;59.126;37.876;2023-04-04T09:09:50;4.25;;;2.47;;
67841;SDS011;54642;59.126;37.876;2023-04-04T09:12:18;3.72;;;2.00;;
67841;SDS011;54642;59.126;37.876;2023-04-04T09:14:46;4.50;;;2.38;;
67841;SDS011;54642;59.126;37.876;2023-04-04T09:17:14;6.03;;;4.07;;
67841;SDS011;54642;59.126;37.876;2023-04-04T09:19:40;6.30;;;4.00;;
67841;SDS011;54642;59.126;37.876;2023-04-04T09:22:07;5.65;;;3.03;;
67841;SDS011;54642;59.126;37.876;2023-04-04T09:24:40;9.57;;;3.88;;
67841;SDS011;54642;59.126;37.876;2023-04-04T09:27:08;5.07;;;3.13;;
67841;SDS011;54642;59.126;37.876;2023-04-04T09:29:36;4.43;;;3.03;;
67841;SDS011;54642;59.126;37.876;2023-04-04T09:32:06;6.28;;;3.38;;
67841;SDS011;54642;59.126;37.876;2023-04-04T09:34:41;4.05;;;2.78;;
67841;SDS011;54642;59.126;37.876;2023-04-04T09:37:09;4.55;;;2.63;;
67841;SDS011;54642;59.126;37.876;2023-04-04T09:39:38;4.93;;;3.25;;
67841;SDS011;54642;59.126;37.876;2023-04-04T09:42:05;4.35;;;2.80;;
67841;SDS011;54642;59.126;37.876;2023-04-04T09:44:35;6.50;;;2.70;;
67841;SDS011;54642;59.126;37.876;2023-04-04T09:49:53;6.38;;;3.28;;
67841;SDS011;54642;59.126;37.876;2023-04-04T09:52:22;4.97;;;3.05;;
67841;SDS011;54642;59.126;37.876;2023-04-04T09:57:28;4.80;;;2.40;;
67841;SDS011;54642;59.126;37.876;2023-04-04T09:59:58;5.45;;;3.17;;
67841;SDS011;54642;59.126;37.876;2023-04-04T10:02:29;5.00;;;3.10;;
67841;SDS011;54642;59.126;37.876;2023-04-04T10:04:55;3.92;;;2.50;;
67841;SDS011;54642;59.126;37.876;2023-04-04T10:07:28;5.13;;;3.15;;
67841;SDS011;54642;59.126;37.876;2023-04-04T10:09:55;4.30;;;3.00;;
67841;SDS011;54642;59.126;37.876;2023-04-04T10:12:23;4.68;;;3.20;;
67841;SDS011;54642;59.126;37.876;2023-04-04T10:14:56;5.03;;;2.78;;
67841;SDS011;54642;59.126;37.876;2023-04-04T10:17:29;4.03;;;2.80;;
67841;SDS011;54642;59.126;37.876;2023-04-04T10:20:00;4.20;;;3.15;;
67841;SDS011;54642;59.126;37.876;2023-04-04T10:22:37;4.25;;;2.72;;
67841;SDS011;54642;59.126;37.876;2023-04-04T10:25:04;5.43;;;3.50;;
67841;SDS011;54642;59.126;37.876;2023-04-04T10:27:30;4.03;;;2.53;;
67841;SDS011;54642;59.126;37.876;2023-04-04T10:29:57;4.80;;;2.92;;
67841;SDS011;54642;59.126;37.876;2023-04-04T10:35:18;4.38;;;3.20;;
67841;SDS011;54642;59.126;37.876;2023-04-04T10:37:56;4.25;;;2.78;;
67841;SDS011;54642;59.126;37.876;2023-04-04T10:40:24;4.78;;;3.28;;
67841;SDS011;54642;59.126;37.876;2023-04-04T10:42:54;5.35;;;2.42;;
67841;SDS011;54642;59.126;37.876;2023-04-04T10:45:21;4.45;;;2.60;;
67841;SDS011;54642;59.126;37.876;2023-04-04T10:47:48;3.17;;;2.13;;
67841;SDS011;54642;59.126;37.876;2023-04-04T10:50:15;4.95;;;2.55;;
67841;SDS011;54642;59.126;37.876;2023-04-04T10:52:41;4.32;;;2.72;;
67841;SDS011;54642;59.126;37.876;2023-04-04T10:55:13;4.38;;;2.63;;
67841;SDS011;54642;59.126;37.876;2023-04-04T10:57:44;4.10;;;2.85;;
67841;SDS011;54642;59.126;37.876;2023-04-04T11:00:13;4.63;;;2.92;;
67841;SDS011;54642;59.126;37.876;2023-04-04T11:02:53;5.38;;;2.55;;
67841;SDS011;54642;59.126;37.876;2023-04-04T11:05:35;4.05;;;3.03;;
67841;SDS011;54642;59.126;37.876;2023-04-04T11:08:09;5.25;;;3.75;;
67841;SDS011;54642;59.126;37.876;2023-04-04T11:10:45;5.20;;;3.08;;
67841;SDS011;54642;59.126;37.876;2023-04-04T11:15:57;5.85;;;3.45;;
67841;SDS011;54642;59.126;37.876;2023-04-04T11:21:00;4.28;;;3.00;;
67841;SDS011;54642;59.126;37.876;2023-04-04T11:23:27;5.03;;;3.28;;
67841;SDS011;54642;59.126;37.876;2023-04-04T11:28:58;6.43;;;2.95;;
67841;SDS011;54642;59.126;37.876;2023-04-04T11:31:27;4.55;;;3.03;;
67841;SDS011;54642;59.126;37.876;2023-04-04T11:44:18;4.55;;;2.72;;
67841;SDS011;54642;59.126;37.876;2023-04-04T11:46:46;4.05;;;2.60;;
67841;SDS011;54642;59.126;37.876;2023-04-04T11:49:13;4.55;;;3.05;;
67841;SDS011;54642;59.126;37.876;2023-04-04T11:51:40;4.05;;;2.80;;
67841;SDS011;54642;59.126;37.876;2023-04-04T11:54:13;5.97;;;3.88;;
67841;SDS011;54642;59.126;37.876;2023-04-04T11:56:43;5.20;;;3.40;;
67841;SDS011;54642;59.126;37.876;2023-04-04T11:59:10;4.45;;;2.97;;
67841;SDS011;54642;59.126;37.876;2023-04-04T12:01:37;6.07;;;3.80;;
67841;SDS011;54642;59.126;37.876;2023-04-04T12:04:04;5.00;;;3.63;;
67841;SDS011;54642;59.126;37.876;2023-04-04T12:06:30;6.75;;;3.95;;
67841;SDS011;54642;59.126;37.876;2023-04-04T12:09:01;5.95;;;3.90;;
67841;SDS011;54642;59.126;37.876;2023-04-04T12:11:28;6.10;;;3.13;;
67841;SDS011;54642;59.126;37.876;2023-04-04T12:13:55;5.47;;;3.17;;
67841;SDS011;54642;59.126;37.876;2023-04-04T12:16:21;5.80;;;3.10;;
67841;SDS011;54642;59.126;37.876;2023-04-04T12:18:48;9.15;;;3.17;;
67841;SDS011;54642;59.126;37.876;2023-04-04T12:21:14;4.43;;;3.17;;
67841;SDS011;54642;59.126;37.876;2023-04-04T12:23:40;4.63;;;3.20;;
67841;SDS011;54642;59.126;37.876;2023-04-04T12:26:06;5.90;;;3.92;;
67841;SDS011;54642;59.126;37.876;2023-04-04T12:28:33;5.18;;;3.42;;
67841;SDS011;54642;59.126;37.876;2023-04-04T12:31:02;5.82;;;3.90;;
67841;SDS011;54642;59.126;37.876;2023-04-04T12:33:34;6.78;;;3.72;;
67841;SDS011;54642;59.126;37.876;2023-04-04T12:36:01;6.18;;;3.65;;
67841;SDS011;54642;59.126;37.876;2023-04-04T12:38:31;6.30;;;3.45;;
67841;SDS011;54642;59.126;37.876;2023-04-04T12:40:57;6.78;;;4.07;;
67841;SDS011;54642;59.126;37.876;2023-04-04T12:43:27;6.78;;;4.05;;
67841;SDS011;54642;59.126;37.876;2023-04-04T12:45:56;6.32;;;4.05;;
67841;SDS011;54642;59.126;37.876;2023-04-04T12:48:26;4.97;;;3.33;;
67841;SDS011;54642;59.126;37.876;2023-04-04T12:51:02;5.65;;;3.45;;
67841;SDS011;54642;59.126;37.876;2023-04-04T12:53:29;8.77;;;3.47;;
67841;SDS011;54642;59.126;37.876;2023-04-04T12:56:03;5.03;;;3.13;;
67841;SDS011;54642;59.126;37.876;2023-04-04T12:58:30;5.85;;;3.53;;
67841;SDS011;54642;59.126;37.876;2023-04-04T13:00:57;6.32;;;3.95;;
67841;SDS011;54642;59.126;37.876;2023-04-04T13:03:25;5.03;;;3.22;;
67841;SDS011;54642;59.126;37.876;2023-04-04T13:05:52;5.35;;;3.60;;
67841;SDS011;54642;59.126;37.876;2023-04-04T13:08:19;5.88;;;3.85;;
67841;SDS011;54642;59.126;37.876;2023-04-04T13:10:58;5.57;;;3.50;;
67841;SDS011;54642;59.126;37.876;2023-04-04T13:13:31;6.20;;;3.75;;
67841;SDS011;54642;59.126;37.876;2023-04-04T13:16:05;5.15;;;3.30;;
67841;SDS011;54642;59.126;37.876;2023-04-04T13:18:33;5.63;;;3.85;;
67841;SDS011;54642;59.126;37.876;2023-04-04T13:21:06;6.38;;;3.50;;
67841;SDS011;54642;59.126;37.876;2023-04-04T13:23:32;6.38;;;4.25;;
67841;SDS011;54642;59.126;37.876;2023-04-04T13:25:59;5.88;;;3.40;;
67841;SDS011;54642;59.126;37.876;2023-04-04T13:28:26;5.63;;;3.00;;
67841;SDS011;54642;59.126;37.876;2023-04-04T13:30:52;6.60;;;4.40;;
67841;SDS011;54642;59.126;37.876;2023-04-04T13:33:18;5.82;;;3.20;;
67841;SDS011;54642;59.126;37.876;2023-04-04T13:35:46;5.50;;;2.70;;
67841;SDS011;54642;59.126;37.876;2023-04-04T13:38:13;7.53;;;4.18;;
67841;SDS011;54642;59.126;37.876;2023-04-04T13:40:40;7.90;;;4.45;;
67841;SDS011;54642;59.126;37.876;2023-04-04T13:43:07;7.07;;;4.82;;
67841;SDS011;54642;59.126;37.876;2023-04-04T13:45:35;6.90;;;4.13;;
67841;SDS011;54642;59.126;37.876;2023-04-04T13:48:01;7.07;;;4.40;;
67841;SDS011;54642;59.126;37.876;2023-04-04T13:50:29;8.18;;;5.10;;
67841;SDS011;54642;59.126;37.876;2023-04-04T13:52:57;9.73;;;4.50;;
67841;SDS011;54642;59.126;37.876;2023-04-04T13:55:23;7.88;;;4.50;;
67841;SDS011;54642;59.126;37.876;2023-04-04T13:57:49;6.90;;;4.35;;
67841;SDS011;54642;59.126;37.876;2023-04-04T14:00:15;8.02;;;4.35;;
67841;SDS011;54642;59.126;37.876;2023-04-04T14:02:41;7.05;;;4.93;;
67841;SDS011;54642;59.126;37.876;2023-04-04T14:05:07;6.00;;;4.00;;
67841;SDS011;54642;59.126;37.876;2023-04-04T14:07:35;6.50;;;4.43;;
67841;SDS011;54642;59.126;37.876;2023-04-04T14:10:02;7.70;;;4.57;;
67841;SDS011;54642;59.126;37.876;2023-04-04T14:12:29;7.13;;;3.80;;
67841;SDS011;54642;59.126;37.876;2023-04-04T14:14:55;5.63;;;3.50;;
67841;SDS011;54642;59.126;37.876;2023-04-04T14:17:22;7.15;;;3.75;;
67841;SDS011;54642;59.126;37.876;2023-04-04T14:19:48;4.82;;;3.70;;
67841;SDS011;54642;59.126;37.876;2023-04-04T14:22:13;7.30;;;3.95;;
67841;SDS011;54642;59.126;37.876;2023-04-04T14:24:40;8.10;;;4.25;;
67841;SDS011;54642;59.126;37.876;2023-04-04T14:27:06;4.97;;;3.00;;
67841;SDS011;54642;59.126;37.876;2023-04-04T14:29:32;5.18;;;3.40;;
67841;SDS011;54642;59.126;37.876;2023-04-04T14:31:57;5.45;;;3.45;;
67841;SDS011;54642;59.126;37.876;2023-04-04T14:34:24;6.97;;;4.07;;
67841;SDS011;54642;59.126;37.876;2023-04-04T14:36:52;6.15;;;3.75;;
67841;SDS011;54642;59.126;37.876;2023-04-04T14:39:18;9.95;;;5.13;;
67841;SDS011;54642;59.126;37.876;2023-04-04T14:41:44;7.18;;;4.53;;
67841;SDS011;54642;59.126;37.876;2023-04-04T14:44:10;6.97;;;4.55;;
67841;SDS011;54642;59.126;37.876;2023-04-04T14:46:36;4.97;;;3.53;;
67841;SDS011;54642;59.126;37.876;2023-04-04T14:49:02;6.68;;;3.83;;
67841;SDS011;54642;59.126;37.876;2023-04-04T14:51:30;5.63;;;3.53;;
67841;SDS011;54642;59.126;37.876;2023-04-04T14:53:57;5.70;;;3.60;;
67841;SDS011;54642;59.126;37.876;2023-04-04T14:56:24;8.27;;;3.92;;
67841;SDS011;54642;59.126;37.876;2023-04-04T14:58:50;5.15;;;3.22;;
67841;SDS011;54642;59.126;37.876;2023-04-04T15:01:16;6.07;;;3.67;;
67841;SDS011;54642;59.126;37.876;2023-04-04T15:03:45;5.57;;;3.40;;
67841;SDS011;54642;59.126;37.876;2023-04-04T15:06:11;7.75;;;5.20;;